Time;durP1;ratioP1;P1;durP2;ratioP2;P2;SDS_P1;SDS_P2;PMS_P1;PMS_P2;Temp;Humidity;BMP_temperature;BMP_pressure;BME280_temperature;BME280_humidity;BME280_pressure;Samples;Min_cycle;Max_cycle;Signal;HPM_P1;HPM_P2
2023/07/07 00:00:51;;;;;;;5.37;2.70;;;;;;;;;;5044656;28;20689;-73
2023/07/07 00:03:19;;;;;;;7.47;2.80;;;;;;;;;;5037593;28;20210;-73
2023/07/07 00:05:47;;;;;;;7.17;2.87;;;;;;;;;;5044845;28;20542;-73
2023/07/07 00:08:16;;;;;;;4.50;2.77;;;;;;;;;;5037571;28;20217;-73
2023/07/07 00:10:44;;;;;;;3.80;2.60;;;;;;;;;;5037815;28;20223;-73
2023/07/07 00:13:12;;;;;;;4.77;2.50;;;;;;;;;;5037641;28;20298;-74
2023/07/07 00:15:43;;;;;;;3.90;2.27;;;;;;;;;;5037756;28;20643;-74
2023/07/07 00:18:12;;;;;;;5.40;2.57;;;;;;;;;;5037625;28;20277;-73
2023/07/07 00:20:39;;;;;;;6.87;2.57;;;;;;;;;;5037703;28;20231;-74
2023/07/07 00:23:07;;;;;;;7.53;3.20;;;;;;;;;;5037501;28;20222;-73
2023/07/07 00:25:36;;;;;;;5.90;3.03;;;;;;;;;;5037545;28;20762;-73
2023/07/07 00:28:04;;;;;;;4.23;2.93;;;;;;;;;;5037463;28;20210;-73
2023/07/07 00:30:32;;;;;;;3.13;2.23;;;;;;;;;;5037622;28;20227;-73
2023/07/07 00:33:00;;;;;;;3.80;2.67;;;;;;;;;;5037412;28;20717;-73
2023/07/07 00:35:27;;;;;;;5.03;2.47;;;;;;;;;;5037693;28;20253;-73
2023/07/07 00:37:55;;;;;;;4.40;2.97;;;;;;;;;;5049972;28;20210;-73
2023/07/07 00:40:23;;;;;;;4.90;2.63;;;;;;;;;;5043535;28;20230;-73
2023/07/07 00:42:52;;;;;;;7.37;3.03;;;;;;;;;;5037731;28;20225;-73
2023/07/07 00:45:20;;;;;;;3.47;2.37;;;;;;;;;;5037433;28;20329;-73
2023/07/07 00:47:55;;;;;;;3.33;2.40;;;;;;;;;;5037221;28;20233;-73
2023/07/07 00:50:26;;;;;;;3.90;2.57;;;;;;;;;;5037202;28;20226;-73
2023/07/07 00:52:53;;;;;;;4.00;2.50;;;;;;;;;;5037238;28;20215;-74
2023/07/07 00:55:25;;;;;;;3.53;2.33;;;;;;;;;;5037426;28;20207;-74
2023/07/07 00:57:54;;;;;;;5.43;2.50;;;;;;;;;;5037321;28;20207;-74
2023/07/07 01:00:22;;;;;;;3.33;2.40;;;;;;;;;;5046077;28;20235;-74
2023/07/07 01:02:53;;;;;;;3.70;2.70;;;;;;;;;;5037431;28;20613;-73
2023/07/07 01:05:21;;;;;;;4.97;2.60;;;;;;;;;;5041624;28;20282;-73
2023/07/07 01:07:51;;;;;;;3.20;2.60;;;;;;;;;;5043411;28;20219;-74
2023/07/07 01:10:20;;;;;;;3.50;2.53;;;;;;;;;;5037260;28;20290;-73
2023/07/07 01:12:49;;;;;;;3.10;2.30;;;;;;;;;;5037343;28;20216;-73
2023/07/07 01:15:19;;;;;;;3.80;2.70;;;;;;;;;;5037132;28;20225;-73
2023/07/07 01:17:52;;;;;;;3.93;2.87;;;;;;;;;;5038355;28;20221;-73
2023/07/07 01:20:30;;;;;;;3.13;2.80;;;;;;;;;;5040707;28;20260;-73
2023/07/07 01:23:14;;;;;;;5.90;2.57;;;;;;;;;;5040579;28;20209;-73
2023/07/07 01:25:47;;;;;;;3.00;2.70;;;;;;;;;;5040797;28;20230;-73
2023/07/07 01:28:31;;;;;;;4.23;2.80;;;;;;;;;;5040873;28;20235;-73
2023/07/07 01:31:02;;;;;;;5.00;2.83;;;;;;;;;;5040771;28;20228;-73
2023/07/07 01:33:32;;;;;;;3.67;2.50;;;;;;;;;;5040437;28;20306;-73
2023/07/07 01:35:59;;;;;;;5.43;2.70;;;;;;;;;;5045290;28;20636;-73
2023/07/07 01:38:29;;;;;;;5.27;2.83;;;;;;;;;;5048687;28;20291;-73
2023/07/07 01:40:59;;;;;;;3.83;2.97;;;;;;;;;;5046537;28;20317;-73
2023/07/07 01:43:41;;;;;;;4.03;2.40;;;;;;;;;;5040629;28;20258;-73
2023/07/07 01:46:16;;;;;;;5.17;2.50;;;;;;;;;;5046519;28;20228;-73
2023/07/07 01:48:51;;;;;;;4.73;2.30;;;;;;;;;;5040465;28;20295;-73
2023/07/07 01:51:20;;;;;;;7.60;2.70;;;;;;;;;;5040320;28;20230;-73
2023/07/07 01:53:48;;;;;;;5.87;3.00;;;;;;;;;;5040130;28;20572;-73
2023/07/07 01:56:21;;;;;;;5.60;3.40;;;;;;;;;;5040262;28;20229;-73
2023/07/07 01:58:49;;;;;;;6.10;3.40;;;;;;;;;;5041453;28;20207;-73
2023/07/07 02:01:18;;;;;;;5.47;3.47;;;;;;;;;;5048402;28;20225;-73
2023/07/07 02:03:46;;;;;;;6.37;3.63;;;;;;;;;;5039906;28;20224;-73
2023/07/07 02:06:14;;;;;;;6.40;3.30;;;;;;;;;;5051929;28;20227;-73
2023/07/07 02:08:42;;;;;;;8.50;3.60;;;;;;;;;;5039958;28;20583;-74
2023/07/07 02:11:09;;;;;;;6.37;3.27;;;;;;;;;;5039942;28;20229;-73
2023/07/07 02:13:37;;;;;;;9.50;3.50;;;;;;;;;;5046904;28;20223;-73
2023/07/07 02:16:07;;;;;;;5.53;3.93;;;;;;;;;;5059784;28;20206;-73
2023/07/07 02:18:37;;;;;;;5.77;3.07;;;;;;;;;;5059761;28;20246;-73
2023/07/07 02:21:05;;;;;;;9.30;3.67;;;;;;;;;;5059346;28;20589;-73
2023/07/07 02:23:33;;;;;;;4.47;3.43;;;;;;;;;;5059635;28;20214;-73
2023/07/07 02:26:01;;;;;;;7.03;3.50;;;;;;;;;;5059705;28;20569;-73
2023/07/07 02:28:29;;;;;;;4.63;3.27;;;;;;;;;;5059159;28;20246;-73
2023/07/07 02:30:57;;;;;;;6.70;3.40;;;;;;;;;;5059139;28;20294;-73
2023/07/07 02:33:30;;;;;;;12.23;2.70;;;;;;;;;;5059312;28;20236;-73
2023/07/07 02:36:02;;;;;;;6.97;2.93;;;;;;;;;;5059160;28;20207;-73
2023/07/07 02:38:30;;;;;;;3.90;2.93;;;;;;;;;;5047507;28;20571;-73
2023/07/07 02:40:58;;;;;;;5.90;3.00;;;;;;;;;;5045384;28;20311;-73
2023/07/07 02:43:26;;;;;;;4.63;3.27;;;;;;;;;;5039604;28;20211;-73
2023/07/07 02:45:54;;;;;;;4.70;2.93;;;;;;;;;;5039317;28;20227;-73
2023/07/07 02:48:22;;;;;;;5.80;3.77;;;;;;;;;;5039445;28;20208;-73
2023/07/07 02:50:56;;;;;;;7.77;3.03;;;;;;;;;;5045950;28;20235;-73
2023/07/07 02:53:28;;;;;;;5.53;3.13;;;;;;;;;;5059000;28;20216;-73
2023/07/07 02:55:56;;;;;;;4.50;2.80;;;;;;;;;;5059213;28;20297;-73
2023/07/07 02:58:24;;;;;;;8.20;4.00;;;;;;;;;;5059107;28;20271;-73
2023/07/07 03:00:52;;;;;;;9.77;3.30;;;;;;;;;;5049863;28;20234;-73
2023/07/07 03:03:21;;;;;;;6.70;3.60;;;;;;;;;;5039063;28;20233;-73
2023/07/07 03:05:49;;;;;;;6.83;3.63;;;;;;;;;;5047361;28;20242;-73
2023/07/07 03:08:16;;;;;;;6.47;3.87;;;;;;;;;;5041724;28;20213;-73
2023/07/07 03:10:46;;;;;;;7.17;4.03;;;;;;;;;;5038930;28;20234;-74
2023/07/07 03:13:13;;;;;;;6.70;4.10;;;;;;;;;;5038858;28;20211;-73
2023/07/07 03:15:41;;;;;;;7.87;4.20;;;;;;;;;;5038636;28;20257;-74
2023/07/07 03:18:09;;;;;;;9.33;4.23;;;;;;;;;;5038519;28;20318;-73
2023/07/07 03:20:40;;;;;;;9.10;4.80;;;;;;;;;;5038743;28;20753;-73
2023/07/07 03:23:07;;;;;;;8.57;4.37;;;;;;;;;;5038386;28;20214;-73
2023/07/07 03:25:35;;;;;;;7.60;4.27;;;;;;;;;;5038574;28;20690;-73
2023/07/07 03:28:04;;;;;;;7.00;4.40;;;;;;;;;;5038366;28;20210;-73
2023/07/07 03:30:34;;;;;;;6.53;3.90;;;;;;;;;;5038395;28;20242;-73
2023/07/07 03:33:02;;;;;;;7.43;3.70;;;;;;;;;;5038297;28;20242;-73
2023/07/07 03:35:29;;;;;;;7.90;4.23;;;;;;;;;;5055110;28;20230;-73
2023/07/07 03:37:57;;;;;;;8.13;3.27;;;;;;;;;;5067395;28;20208;-73
2023/07/07 03:40:25;;;;;;;5.37;3.13;;;;;;;;;;5066659;28;20755;-73
2023/07/07 03:42:53;;;;;;;6.60;3.07;;;;;;;;;;5068575;28;20197;-74
2023/07/07 03:45:22;;;;;;;5.07;2.97;;;;;;;;;;5064672;28;20207;-74
2023/07/07 03:47:50;;;;;;;3.50;2.90;;;;;;;;;;5061500;28;20588;-73
2023/07/07 03:50:18;;;;;;;5.53;3.10;;;;;;;;;;5065297;28;20223;-73
2023/07/07 03:52:46;;;;;;;5.97;2.93;;;;;;;;;;5063939;28;20307;-73
2023/07/07 03:55:14;;;;;;;4.47;2.97;;;;;;;;;;5064117;28;20235;-74
2023/07/07 03:57:42;;;;;;;8.10;2.80;;;;;;;;;;5068845;28;20210;-73
2023/07/07 04:00:11;;;;;;;6.03;3.37;;;;;;;;;;5066783;28;20224;-73
2023/07/07 04:02:43;;;;;;;7.57;3.30;;;;;;;;;;5066110;28;20204;-73
2023/07/07 04:05:11;;;;;;;7.23;3.50;;;;;;;;;;5065226;28;20377;-74
2023/07/07 04:07:39;;;;;;;6.77;2.73;;;;;;;;;;5065836;28;20283;-73
2023/07/07 04:10:08;;;;;;;7.23;3.43;;;;;;;;;;5067694;28;20215;-73
2023/07/07 04:12:36;;;;;;;4.87;2.70;;;;;;;;;;5062215;28;20300;-73
2023/07/07 04:15:04;;;;;;;6.00;3.33;;;;;;;;;;5064785;28;20288;-73
2023/07/07 04:17:32;;;;;;;5.63;3.23;;;;;;;;;;5058226;28;20238;-73
2023/07/07 04:20:02;;;;;;;5.67;3.03;;;;;;;;;;5065760;28;20225;-73
2023/07/07 04:22:30;;;;;;;6.07;3.40;;;;;;;;;;5068850;28;20585;-73
2023/07/07 04:25:08;;;;;;;4.37;2.60;;;;;;;;;;5068541;28;20226;-73
2023/07/07 04:27:36;;;;;;;5.07;3.90;;;;;;;;;;5065770;28;20223;-73
2023/07/07 04:30:04;;;;;;;5.70;2.67;;;;;;;;;;5066418;28;20766;-74
2023/07/07 04:32:34;;;;;;;10.70;3.40;;;;;;;;;;5063290;28;20234;-74
2023/07/07 04:35:04;;;;;;;5.67;2.63;;;;;;;;;;5064151;28;20198;-74
2023/07/07 04:37:32;;;;;;;12.53;4.10;;;;;;;;;;5064037;28;20288;-74
2023/07/07 04:40:00;;;;;;;12.60;3.70;;;;;;;;;;5068779;28;20764;-74
2023/07/07 04:42:28;;;;;;;7.63;3.27;;;;;;;;;;5063070;28;20198;-73
2023/07/07 04:44:56;;;;;;;8.17;3.53;;;;;;;;;;5052290;28;20207;-73
2023/07/07 04:47:24;;;;;;;5.90;3.23;;;;;;;;;;5037180;28;20793;-74
2023/07/07 04:49:52;;;;;;;6.07;3.13;;;;;;;;;;5037233;28;20682;-74
2023/07/07 04:52:22;;;;;;;4.17;2.40;;;;;;;;;;5037909;28;20656;-73
2023/07/07 04:54:50;;;;;;;6.13;3.17;;;;;;;;;;5041493;28;20208;-73
2023/07/07 04:57:17;;;;;;;5.53;2.90;;;;;;;;;;5048121;28;20221;-73
2023/07/07 04:59:45;;;;;;;5.73;2.93;;;;;;;;;;5060441;28;20319;-74
2023/07/07 05:02:13;;;;;;;6.63;3.03;;;;;;;;;;5041326;28;20210;-73
2023/07/07 05:04:41;;;;;;;6.77;2.83;;;;;;;;;;5040944;28;20210;-73
2023/07/07 05:07:09;;;;;;;7.30;3.00;;;;;;;;;;5052204;28;20244;-73
2023/07/07 05:09:38;;;;;;;8.23;3.23;;;;;;;;;;5040779;28;20213;-74
2023/07/07 05:12:06;;;;;;;5.23;2.60;;;;;;;;;;5041152;28;20298;-74
2023/07/07 05:14:34;;;;;;;4.67;2.77;;;;;;;;;;5040831;28;20219;-73
2023/07/07 05:17:02;;;;;;;3.00;2.20;;;;;;;;;;5040673;28;20744;-73
2023/07/07 05:19:29;;;;;;;4.83;2.80;;;;;;;;;;5040814;28;20662;-74
2023/07/07 05:21:58;;;;;;;3.93;2.87;;;;;;;;;;5040595;28;20207;-73
2023/07/07 05:24:25;;;;;;;4.00;2.77;;;;;;;;;;5064458;28;20197;-72
2023/07/07 05:26:55;;;;;;;5.13;2.73;;;;;;;;;;5067372;28;20240;-72
2023/07/07 05:29:23;;;;;;;5.67;3.50;;;;;;;;;;5067450;28;20207;-73
2023/07/07 05:31:51;;;;;;;5.83;3.30;;;;;;;;;;5040664;28;20215;-72
2023/07/07 05:34:19;;;;;;;5.17;2.80;;;;;;;;;;5040616;28;20217;-72
2023/07/07 05:36:47;;;;;;;4.60;2.93;;;;;;;;;;5051461;28;20538;-72
2023/07/07 05:39:15;;;;;;;7.67;3.53;;;;;;;;;;5042173;28;20239;-73
2023/07/07 05:41:43;;;;;;;6.73;2.93;;;;;;;;;;5046450;28;20226;-75
2023/07/07 05:44:12;;;;;;;3.70;3.17;;;;;;;;;;5040167;28;20302;-73
2023/07/07 05:46:39;;;;;;;9.83;4.57;;;;;;;;;;5040493;28;20229;-73
2023/07/07 05:49:07;;;;;;;9.37;6.37;;;;;;;;;;5052724;28;20199;-72
2023/07/07 05:51:35;;;;;;;8.53;3.73;;;;;;;;;;5064915;28;20249;-71
2023/07/07 05:54:03;;;;;;;10.40;6.67;;;;;;;;;;5069272;28;20227;-72
2023/07/07 05:56:31;;;;;;;11.57;6.57;;;;;;;;;;5064666;28;20680;-71
2023/07/07 05:58:59;;;;;;;11.97;5.77;;;;;;;;;;5042753;28;20215;-71
2023/07/07 06:01:28;;;;;;;12.23;5.63;;;;;;;;;;5041513;28;20235;-72
2023/07/07 06:03:56;;;;;;;14.43;6.30;;;;;;;;;;5038802;28;20255;-72
2023/07/07 06:06:24;;;;;;;10.53;4.73;;;;;;;;;;5047019;28;20235;-72
2023/07/07 06:08:51;;;;;;;12.80;5.93;;;;;;;;;;5039882;28;20205;-72
2023/07/07 06:11:19;;;;;;;10.20;5.20;;;;;;;;;;5039677;28;21070;-72
2023/07/07 06:13:47;;;;;;;11.93;6.83;;;;;;;;;;5039734;28;20210;-73
2023/07/07 06:16:15;;;;;;;7.57;4.80;;;;;;;;;;5040012;28;20234;-73
2023/07/07 06:18:44;;;;;;;14.30;6.23;;;;;;;;;;5039541;28;20264;-74
2023/07/07 06:21:12;;;;;;;13.40;5.90;;;;;;;;;;5039963;28;20235;-73
2023/07/07 06:23:40;;;;;;;11.23;6.13;;;;;;;;;;5039494;28;20212;-73
2023/07/07 06:26:08;;;;;;;8.67;5.00;;;;;;;;;;5039982;28;20567;-73
2023/07/07 06:28:35;;;;;;;9.63;5.07;;;;;;;;;;5039700;28;20590;-73
2023/07/07 06:31:03;;;;;;;10.30;6.47;;;;;;;;;;5039484;28;20228;-73
2023/07/07 06:33:32;;;;;;;13.10;6.47;;;;;;;;;;5039398;28;20270;-73
2023/07/07 06:36:01;;;;;;;9.53;4.83;;;;;;;;;;5044423;28;20285;-73
2023/07/07 06:38:29;;;;;;;10.07;5.00;;;;;;;;;;5047154;28;20232;-71
2023/07/07 06:40:57;;;;;;;11.47;4.67;;;;;;;;;;5045748;28;20238;-73
2023/07/07 06:43:25;;;;;;;9.33;4.33;;;;;;;;;;5039381;28;20682;-74
2023/07/07 06:45:55;;;;;;;8.70;4.27;;;;;;;;;;5039245;28;20216;-67
2023/07/07 06:48:23;;;;;;;9.10;4.43;;;;;;;;;;5039101;28;20226;-70
2023/07/07 06:50:51;;;;;;;9.20;4.23;;;;;;;;;;5039122;28;20696;-71
2023/07/07 06:53:20;;;;;;;7.30;4.67;;;;;;;;;;5038937;28;20211;-70
2023/07/07 06:55:48;;;;;;;8.10;3.63;;;;;;;;;;5039349;28;20237;-71
2023/07/07 06:58:16;;;;;;;6.77;3.60;;;;;;;;;;5039351;28;20645;-73
2023/07/07 07:00:44;;;;;;;5.90;3.77;;;;;;;;;;5047289;28;20249;-73
2023/07/07 07:03:12;;;;;;;6.87;3.80;;;;;;;;;;5039246;28;20263;-69
2023/07/07 07:05:40;;;;;;;8.80;3.57;;;;;;;;;;5046302;28;20234;-72
2023/07/07 07:08:08;;;;;;;13.63;3.30;;;;;;;;;;5042500;28;20227;-72
2023/07/07 07:10:38;;;;;;;8.27;3.90;;;;;;;;;;5038703;28;20255;-74
2023/07/07 07:13:05;;;;;;;7.17;4.03;;;;;;;;;;5038520;28;20239;-73
2023/07/07 07:15:33;;;;;;;8.13;3.63;;;;;;;;;;5038362;28;20572;-73
2023/07/07 07:18:01;;;;;;;10.47;4.60;;;;;;;;;;5038904;28;20205;-73
2023/07/07 07:20:29;;;;;;;7.53;3.80;;;;;;;;;;5038832;28;20235;-72
2023/07/07 07:22:56;;;;;;;9.60;3.87;;;;;;;;;;5038237;28;20213;-73
2023/07/07 07:25:24;;;;;;;6.53;3.20;;;;;;;;;;5038981;28;20230;-72
2023/07/07 07:27:53;;;;;;;5.90;3.13;;;;;;;;;;5038534;28;20231;-72
2023/07/07 07:30:21;;;;;;;6.70;3.27;;;;;;;;;;5038283;28;20234;-72
2023/07/07 07:32:49;;;;;;;3.77;3.33;;;;;;;;;;5038264;28;20260;-71
2023/07/07 07:35:17;;;;;;;7.43;3.07;;;;;;;;;;5038430;28;20210;-73
2023/07/07 07:37:44;;;;;;;6.60;3.50;;;;;;;;;;5051541;28;20206;-73
2023/07/07 07:40:12;;;;;;;5.10;3.50;;;;;;;;;;5043962;28;20222;-73
2023/07/07 07:42:40;;;;;;;6.53;3.40;;;;;;;;;;5038552;28;20290;-74
2023/07/07 07:45:15;;;;;;;6.07;3.27;;;;;;;;;;5038387;28;20242;-73
2023/07/07 07:47:42;;;;;;;6.23;3.33;;;;;;;;;;5038013;28;20596;-73
2023/07/07 07:50:10;;;;;;;5.80;3.00;;;;;;;;;;5042653;28;20225;-74
2023/07/07 07:52:38;;;;;;;4.87;3.13;;;;;;;;;;5056529;28;20642;-74
2023/07/07 07:55:08;;;;;;;7.20;2.87;;;;;;;;;;5057945;28;20263;-73
2023/07/07 07:57:36;;;;;;;5.13;3.00;;;;;;;;;;5055430;28;20231;-73
2023/07/07 08:00:04;;;;;;;5.60;3.13;;;;;;;;;;5041945;28;20234;-72
2023/07/07 08:02:34;;;;;;;5.83;2.90;;;;;;;;;;5047488;28;20201;-70
2023/07/07 08:05:02;;;;;;;9.20;2.97;;;;;;;;;;5038365;28;20274;-68
2023/07/07 08:07:33;;;;;;;6.57;2.40;;;;;;;;;;5050462;28;20213;-69
2023/07/07 08:10:00;;;;;;;5.57;2.80;;;;;;;;;;5037659;28;20651;-67
2023/07/07 08:12:28;;;;;;;5.33;2.47;;;;;;;;;;5037414;28;20573;-68
2023/07/07 08:14:56;;;;;;;4.67;2.70;;;;;;;;;;5037420;28;20237;-67
2023/07/07 08:17:23;;;;;;;7.70;2.67;;;;;;;;;;5040643;28;20201;-66
2023/07/07 08:19:55;;;;;;;4.80;2.30;;;;;;;;;;5056062;28;20246;-66
2023/07/07 08:22:24;;;;;;;3.67;2.63;;;;;;;;;;5037216;28;20208;-68
2023/07/07 08:24:53;;;;;;;8.23;2.90;;;;;;;;;;5037596;28;20222;-66
2023/07/07 08:27:22;;;;;;;5.83;2.53;;;;;;;;;;5036971;28;20279;-66
2023/07/07 08:29:53;;;;;;;6.40;2.43;;;;;;;;;;5037322;28;20241;-66
2023/07/07 08:32:22;;;;;;;5.73;2.63;;;;;;;;;;5037321;28;20729;-66
2023/07/07 08:34:50;;;;;;;5.73;2.67;;;;;;;;;;5037338;28;20221;-64
2023/07/07 08:37:24;;;;;;;5.43;2.80;;;;;;;;;;5044290;28;20205;-64
2023/07/07 08:39:51;;;;;;;4.93;2.67;;;;;;;;;;5039790;28;20257;-66
2023/07/07 08:42:25;;;;;;;4.50;2.80;;;;;;;;;;5044997;28;20215;-64
2023/07/07 08:44:53;;;;;;;6.50;3.00;;;;;;;;;;5037525;28;20211;-66
2023/07/07 08:47:28;;;;;;;3.40;2.40;;;;;;;;;;5037423;28;20207;-66
2023/07/07 08:49:58;;;;;;;6.10;2.87;;;;;;;;;;5036891;28;20324;-65
2023/07/07 08:52:38;;;;;;;5.80;2.70;;;;;;;;;;5040354;28;20212;-66
2023/07/07 08:55:12;;;;;;;10.27;3.33;;;;;;;;;;5046068;28;20612;-69
2023/07/07 08:57:45;;;;;;;7.27;3.20;;;;;;;;;;5036968;28;20583;-67
2023/07/07 09:00:18;;;;;;;5.93;3.23;;;;;;;;;;5051875;28;20221;-70
2023/07/07 09:03:09;;;;;;;5.70;2.90;;;;;;;;;;5040791;28;20240;-74
2023/07/07 09:05:44;;;;;;;6.60;2.57;;;;;;;;;;5049161;28;20559;-74
2023/07/07 09:08:18;;;;;;;4.50;2.87;;;;;;;;;;5061569;28;20211;-74
2023/07/07 09:10:51;;;;;;;4.57;2.40;;;;;;;;;;5066499;28;20690;-74
2023/07/07 09:13:23;;;;;;;6.37;3.10;;;;;;;;;;5066018;28;20651;-74
2023/07/07 09:16:00;;;;;;;7.37;3.10;;;;;;;;;;5063608;28;20228;-74
2023/07/07 09:18:30;;;;;;;9.93;2.67;;;;;;;;;;5059122;28;20628;-74
2023/07/07 09:21:00;;;;;;;3.93;2.60;;;;;;;;;;5063065;28;20225;-74
2023/07/07 09:23:31;;;;;;;10.17;2.70;;;;;;;;;;5049802;28;20217;-74
2023/07/07 09:26:01;;;;;;;6.23;2.80;;;;;;;;;;5036946;28;20212;-74
2023/07/07 09:28:32;;;;;;;8.30;2.83;;;;;;;;;;5039976;28;20206;-74
2023/07/07 09:31:08;;;;;;;6.37;2.63;;;;;;;;;;5053234;28;20231;-74
2023/07/07 09:33:36;;;;;;;11.80;3.07;;;;;;;;;;5036918;28;20595;-73
2023/07/07 09:36:09;;;;;;;5.77;2.80;;;;;;;;;;5039644;28;20658;-73
2023/07/07 09:38:46;;;;;;;5.13;3.80;;;;;;;;;;5038007;28;20211;-74
2023/07/07 09:41:20;;;;;;;4.17;2.90;;;;;;;;;;5052073;28;20221;-74
2023/07/07 09:43:51;;;;;;;5.57;2.70;;;;;;;;;;5040364;28;20294;-74
2023/07/07 09:46:25;;;;;;;4.37;3.13;;;;;;;;;;5040969;28;20209;-73
2023/07/07 09:48:58;;;;;;;7.70;3.00;;;;;;;;;;5048273;28;20247;-73
2023/07/07 09:51:32;;;;;;;3.10;2.45;;;;;;;;;;5039768;28;20227;-74
2023/07/07 09:54:01;;;;;;;3.67;2.90;;;;;;;;;;5040181;28;20213;-74
2023/07/07 09:56:33;;;;;;;7.38;2.83;;;;;;;;;;5040135;28;20307;-73
2023/07/07 09:59:06;;;;;;;6.93;3.10;;;;;;;;;;5040669;28;20721;-73
2023/07/07 10:01:35;;;;;;;4.80;2.70;;;;;;;;;;5039818;28;20234;-72
2023/07/07 10:04:04;;;;;;;5.30;3.07;;;;;;;;;;5039691;28;20210;-73
2023/07/07 10:06:35;;;;;;;4.32;3.10;;;;;;;;;;5043332;28;20244;-73
2023/07/07 10:09:04;;;;;;;3.53;2.80;;;;;;;;;;5039600;28;20227;-73
2023/07/07 10:11:35;;;;;;;4.68;2.92;;;;;;;;;;5043095;28;20227;-73
2023/07/07 10:14:23;;;;;;;6.68;2.90;;;;;;;;;;5065950;28;20605;-73
2023/07/07 10:16:55;;;;;;;4.20;2.60;;;;;;;;;;5065147;28;20249;-73
2023/07/07 10:19:23;;;;;;;5.10;2.75;;;;;;;;;;5067711;28;20641;-73
2023/07/07 10:21:51;;;;;;;6.82;3.20;;;;;;;;;;5061698;28;20199;-73
2023/07/07 10:24:21;;;;;;;9.75;2.90;;;;;;;;;;5066688;28;20203;-73
2023/07/07 10:26:49;;;;;;;3.88;2.90;;;;;;;;;;5059734;28;20217;-73
2023/07/07 10:29:21;;;;;;;3.83;2.92;;;;;;;;;;5058253;28;20219;-73
2023/07/07 10:31:49;;;;;;;3.28;2.47;;;;;;;;;;5042223;28;20235;-73
2023/07/07 10:34:26;;;;;;;5.35;3.38;;;;;;;;;;5051364;28;20212;-73
2023/07/07 10:36:54;;;;;;;4.60;2.80;;;;;;;;;;5071111;28;20210;-73
2023/07/07 10:39:26;;;;;;;6.75;2.97;;;;;;;;;;5071900;28;20208;-73
2023/07/07 10:41:54;;;;;;;7.15;2.90;;;;;;;;;;5056549;28;20220;-66
2023/07/07 10:44:24;;;;;;;3.72;2.80;;;;;;;;;;5039316;28;20242;-66
2023/07/07 10:46:51;;;;;;;3.20;2.90;;;;;;;;;;5039117;28;20293;-66
2023/07/07 10:49:24;;;;;;;5.57;3.30;;;;;;;;;;5039532;28;20313;-65
2023/07/07 10:51:58;;;;;;;5.03;2.85;;;;;;;;;;5038575;28;20208;-66
2023/07/07 10:54:33;;;;;;;6.05;2.70;;;;;;;;;;5039330;28;20208;-66
2023/07/07 10:57:06;;;;;;;4.55;2.63;;;;;;;;;;5046099;28;20569;-66
2023/07/07 10:59:42;;;;;;;6.78;3.00;;;;;;;;;;5057980;28;20210;-66
2023/07/07 11:02:20;;;;;;;6.80;2.88;;;;;;;;;;5038848;28;20726;-66
2023/07/07 11:04:55;;;;;;;3.30;2.55;;;;;;;;;;5038985;28;20253;-66
2023/07/07 11:07:28;;;;;;;5.35;2.97;;;;;;;;;;5046715;28;20236;-66
2023/07/07 11:10:06;;;;;;;5.13;3.00;;;;;;;;;;5038845;28;20573;-66
2023/07/07 11:12:50;;;;;;;3.60;2.70;;;;;;;;;;5038607;28;20213;-66
2023/07/07 11:15:22;;;;;;;6.20;2.60;;;;;;;;;;5038962;28;20203;-66
2023/07/07 11:17:56;;;;;;;4.15;3.38;;;;;;;;;;5038918;28;20214;-66
2023/07/07 11:20:32;;;;;;;7.22;3.03;;;;;;;;;;5038816;28;20320;-66
2023/07/07 11:23:17;;;;;;;4.68;3.03;;;;;;;;;;5038494;28;20297;-66
2023/07/07 11:25:53;;;;;;;4.15;2.83;;;;;;;;;;5038684;28;20205;-66
2023/07/07 11:28:28;;;;;;;5.38;2.53;;;;;;;;;;5040296;28;20301;-66
2023/07/07 11:31:03;;;;;;;4.53;3.28;;;;;;;;;;5048559;28;20230;-66
2023/07/07 11:33:40;;;;;;;6.38;3.00;;;;;;;;;;5038259;28;20657;-66
2023/07/07 11:36:16;;;;;;;4.75;2.50;;;;;;;;;;5038051;28;20206;-66
2023/07/07 11:38:50;;;;;;;6.40;2.60;;;;;;;;;;5038595;28;20205;-66
2023/07/07 11:41:27;;;;;;;4.45;2.70;;;;;;;;;;5053029;28;20230;-66
2023/07/07 11:44:08;;;;;;;4.55;2.75;;;;;;;;;;5058298;28;20219;-66
2023/07/07 11:46:45;;;;;;;4.13;3.05;;;;;;;;;;5058279;28;20236;-66
2023/07/07 11:49:19;;;;;;;3.50;2.70;;;;;;;;;;5058367;28;20247;-65
2023/07/07 11:51:50;;;;;;;3.38;2.83;;;;;;;;;;5057914;28;20253;-66
2023/07/07 11:54:35;;;;;;;5.05;2.80;;;;;;;;;;5057942;28;20613;-66
2023/07/07 11:57:18;;;;;;;4.57;2.60;;;;;;;;;;5058169;28;20250;-66
2023/07/07 11:59:55;;;;;;;4.68;2.38;;;;;;;;;;5050045;28;20241;-66
2023/07/07 12:02:25;;;;;;;4.22;2.78;;;;;;;;;;5037172;28;20216;-66
2023/07/07 12:04:55;;;;;;;3.70;2.90;;;;;;;;;;5038726;28;20207;-66
2023/07/07 12:07:27;;;;;;;6.60;2.70;;;;;;;;;;5041853;28;20273;-66
2023/07/07 12:09:58;;;;;;;6.68;3.42;;;;;;;;;;5037980;28;20237;-66
2023/07/07 12:12:36;;;;;;;8.25;2.70;;;;;;;;;;5037965;28;20212;-66
2023/07/07 12:15:10;;;;;;;5.10;2.90;;;;;;;;;;5038148;28;20238;-66
2023/07/07 12:17:39;;;;;;;4.45;2.67;;;;;;;;;;5037913;28;20214;-66
2023/07/07 12:20:11;;;;;;;3.80;2.38;;;;;;;;;;5037662;28;20590;-66
2023/07/07 12:22:40;;;;;;;4.88;2.55;;;;;;;;;;5037572;28;20221;-65
2023/07/07 12:25:21;;;;;;;7.63;3.22;;;;;;;;;;5037922;28;20207;-66
2023/07/07 12:27:51;;;;;;;4.00;2.88;;;;;;;;;;5037864;28;20225;-66
2023/07/07 12:30:25;;;;;;;5.50;2.70;;;;;;;;;;5050787;28;20234;-65
2023/07/07 12:32:53;;;;;;;3.38;2.85;;;;;;;;;;5039038;28;20244;-65
2023/07/07 12:35:26;;;;;;;3.63;2.50;;;;;;;;;;5047537;28;20616;-66
2023/07/07 12:37:56;;;;;;;3.72;2.53;;;;;;;;;;5037128;28;20222;-65
2023/07/07 12:40:24;;;;;;;8.93;2.80;;;;;;;;;;5044719;28;20214;-65
2023/07/07 12:42:56;;;;;;;4.30;3.08;;;;;;;;;;5039365;28;20218;-66
2023/07/07 12:45:28;;;;;;;6.60;2.78;;;;;;;;;;5037281;28;20215;-66
2023/07/07 12:47:58;;;;;;;4.68;2.78;;;;;;;;;;5037746;28;20207;-66
2023/07/07 12:50:28;;;;;;;3.58;2.35;;;;;;;;;;5037363;28;20325;-66
2023/07/07 12:52:59;;;;;;;4.53;2.78;;;;;;;;;;5037057;28;20211;-65
2023/07/07 12:55:29;;;;;;;4.07;2.58;;;;;;;;;;5037528;28;20211;-65
2023/07/07 12:58:14;;;;;;;6.05;3.03;;;;;;;;;;5037703;28;20298;-66
2023/07/07 13:00:44;;;;;;;6.32;2.50;;;;;;;;;;5042074;28;20227;-66
2023/07/07 13:03:18;;;;;;;4.18;2.63;;;;;;;;;;5037281;28;20211;-65
2023/07/07 13:05:47;;;;;;;3.80;2.70;;;;;;;;;;5038975;28;20211;-73
2023/07/07 13:08:33;;;;;;;5.35;3.17;;;;;;;;;;5036895;28;20338;-76
2023/07/07 13:11:03;;;;;;;9.85;3.00;;;;;;;;;;5035989;28;20647;-73
2023/07/07 13:13:36;;;;;;;5.97;3.35;;;;;;;;;;5038386;28;20257;-74
2023/07/07 13:16:06;;;;;;;4.57;3.00;;;;;;;;;;5041318;28;20207;-67
2023/07/07 13:18:34;;;;;;;4.00;2.80;;;;;;;;;;5040996;28;20204;-66
2023/07/07 13:21:01;;;;;;;3.47;2.47;;;;;;;;;;5040930;28;20690;-67
2023/07/07 13:23:31;;;;;;;4.97;2.85;;;;;;;;;;5041000;28;20207;-67
2023/07/07 13:25:59;;;;;;;5.50;2.97;;;;;;;;;;5040957;28;20207;-67
2023/07/07 13:28:27;;;;;;;6.80;2.67;;;;;;;;;;5047564;28;20211;-67
2023/07/07 13:30:56;;;;;;;3.35;2.72;;;;;;;;;;5051286;28;20326;-69
2023/07/07 13:33:27;;;;;;;3.78;2.65;;;;;;;;;;5040535;28;20234;-69
2023/07/07 13:35:56;;;;;;;3.47;2.67;;;;;;;;;;5040321;28;20203;-68
2023/07/07 13:38:26;;;;;;;3.85;2.60;;;;;;;;;;5040610;28;20242;-68
2023/07/07 13:40:54;;;;;;;4.75;3.10;;;;;;;;;;5040931;28;20705;-68
2023/07/07 13:43:26;;;;;;;4.00;2.33;;;;;;;;;;5040384;28;20235;-69
2023/07/07 13:45:55;;;;;;;7.30;2.75;;;;;;;;;;5040536;28;20290;-69
2023/07/07 13:48:24;;;;;;;6.65;2.70;;;;;;;;;;5050294;28;20266;-67
2023/07/07 13:50:54;;;;;;;5.53;3.22;;;;;;;;;;5045697;28;20230;-67
2023/07/07 13:53:22;;;;;;;3.67;2.85;;;;;;;;;;5043099;28;20290;-68
2023/07/07 13:55:52;;;;;;;5.25;2.08;;;;;;;;;;5039704;28;20574;-67
2023/07/07 13:58:22;;;;;;;3.97;2.63;;;;;;;;;;5040012;28;20207;-68
2023/07/07 14:00:58;;;;;;;7.88;3.38;;;;;;;;;;5041774;28;20294;-67
2023/07/07 14:03:26;;;;;;;6.78;2.63;;;;;;;;;;5042789;28;20570;-68
2023/07/07 14:05:57;;;;;;;6.57;2.50;;;;;;;;;;5059406;28;20218;-68
2023/07/07 14:08:27;;;;;;;4.57;2.63;;;;;;;;;;5059619;28;20606;-67
2023/07/07 14:10:56;;;;;;;4.03;2.80;;;;;;;;;;5059794;28;20236;-68
2023/07/07 14:13:30;;;;;;;7.97;2.92;;;;;;;;;;5059846;28;20693;-67
2023/07/07 14:16:01;;;;;;;6.32;2.75;;;;;;;;;;5052904;28;20211;-67
2023/07/07 14:18:34;;;;;;;5.18;3.05;;;;;;;;;;5039979;28;20265;-66
2023/07/07 14:21:04;;;;;;;4.65;2.70;;;;;;;;;;5039634;28;20235;-67
2023/07/07 14:23:32;;;;;;;4.00;2.60;;;;;;;;;;5039878;28;20235;-65
2023/07/07 14:26:00;;;;;;;4.30;2.80;;;;;;;;;;5038949;28;20211;-65
2023/07/07 14:28:31;;;;;;;7.10;2.50;;;;;;;;;;5042298;28;20271;-65
2023/07/07 14:31:01;;;;;;;5.20;2.50;;;;;;;;;;5049852;28;20243;-65
2023/07/07 14:33:29;;;;;;;5.88;3.08;;;;;;;;;;5039497;28;20314;-65
2023/07/07 14:36:01;;;;;;;4.18;2.60;;;;;;;;;;5039454;28;20294;-64
2023/07/07 14:38:32;;;;;;;4.65;2.65;;;;;;;;;;5039791;28;20239;-66
2023/07/07 14:41:08;;;;;;;4.35;2.60;;;;;;;;;;5054516;28;20223;-64
2023/07/07 14:43:39;;;;;;;3.63;2.47;;;;;;;;;;5065006;28;20685;-62
2023/07/07 14:46:09;;;;;;;6.35;2.45;;;;;;;;;;5066169;28;20224;-62
2023/07/07 14:48:43;;;;;;;4.70;2.65;;;;;;;;;;5065028;28;20281;-62
2023/07/07 14:51:11;;;;;;;4.72;3.08;;;;;;;;;;5039033;28;20293;-63
2023/07/07 14:53:40;;;;;;;3.95;2.05;;;;;;;;;;5039072;28;20257;-63
2023/07/07 14:56:21;;;;;;;4.72;3.03;;;;;;;;;;5067702;28;20213;-63
2023/07/07 14:58:55;;;;;;;4.65;2.97;;;;;;;;;;5067638;28;20307;-62
2023/07/07 15:01:25;;;;;;;6.50;2.80;;;;;;;;;;5065151;28;20231;-63